sensor_id;sensor_type;location;lat;lon;timestamp;pressure;altitude;pressure_sealevel;temperature;humidity
49461;BME280;35355;49.198;-0.368;2023-02-26T00:02:09;101237.97;;;4.01;71.06
49461;BME280;35355;49.198;-0.368;2023-02-26T00:04:36;101239.00;;;4.00;71.08
49461;BME280;35355;49.198;-0.368;2023-02-26T00:07:01;101243.59;;;3.99;70.82
49461;BME280;35355;49.198;-0.368;2023-02-26T00:09:29;101238.59;;;3.96;70.85
49461;BME280;35355;49.198;-0.368;2023-02-26T00:11:54;101243.59;;;3.93;70.77
49461;BME280;35355;49.198;-0.368;2023-02-26T00:14:20;101253.53;;;3.92;71.26
49461;BME280;35355;49.198;-0.368;2023-02-26T00:16:50;101252.53;;;3.93;71.07
49461;BME280;35355;49.198;-0.368;2023-02-26T00:19:19;101252.09;;;3.90;71.00
49461;BME280;35355;49.198;-0.368;2023-02-26T00:21:44;101252.50;;;3.86;70.75
49461;BME280;35355;49.198;-0.368;2023-02-26T00:24:10;101253.34;;;3.87;70.87
49461;BME280;35355;49.198;-0.368;2023-02-26T00:26:35;101250.66;;;3.87;70.90
49461;BME280;35355;49.198;-0.368;2023-02-26T00:29:02;101247.31;;;3.85;70.92
49461;BME280;35355;49.198;-0.368;2023-02-26T00:31:28;101261.22;;;3.82;70.55
49461;BME280;35355;49.198;-0.368;2023-02-26T00:33:54;101251.44;;;3.81;70.96
49461;BME280;35355;49.198;-0.368;2023-02-26T00:36:36;101249.78;;;3.80;70.93
49461;BME280;35355;49.198;-0.368;2023-02-26T00:39:31;101255.59;;;3.77;71.04
49461;BME280;35355;49.198;-0.368;2023-02-26T00:41:51;101259.75;;;3.73;71.26
49461;BME280;35355;49.198;-0.368;2023-02-26T00:44:17;101259.13;;;3.71;71.29
49461;BME280;35355;49.198;-0.368;2023-02-26T00:46:55;101261.81;;;3.71;71.39
49461;BME280;35355;49.198;-0.368;2023-02-26T00:49:32;101254.09;;;3.67;71.05
49461;BME280;35355;49.198;-0.368;2023-02-26T00:52:12;101254.50;;;3.64;71.31
49461;BME280;35355;49.198;-0.368;2023-02-26T00:54:38;101260.31;;;3.61;71.93
49461;BME280;35355;49.198;-0.368;2023-02-26T00:57:03;101264.44;;;3.57;71.12
49461;BME280;35355;49.198;-0.368;2023-02-26T00:59:31;101260.94;;;3.57;71.10
49461;BME280;35355;49.198;-0.368;2023-02-26T01:01:56;101268.22;;;3.56;71.22
49461;BME280;35355;49.198;-0.368;2023-02-26T01:04:22;101264.03;;;3.54;71.11
49461;BME280;35355;49.198;-0.368;2023-02-26T01:06:54;101266.13;;;3.51;71.05
49461;BME280;35355;49.198;-0.368;2023-02-26T01:09:25;101285.22;;;3.50;71.11
49461;BME280;35355;49.198;-0.368;2023-02-26T01:11:52;101277.50;;;3.47;71.00
49461;BME280;35355;49.198;-0.368;2023-02-26T01:14:18;101269.81;;;3.44;70.83
49461;BME280;35355;49.198;-0.368;2023-02-26T01:16:53;101282.06;;;3.40;71.08
49461;BME280;35355;49.198;-0.368;2023-02-26T01:22:29;101285.78;;;3.39;71.01
49461;BME280;35355;49.198;-0.368;2023-02-26T01:25:29;101296.97;;;3.36;70.80
49461;BME280;35355;49.198;-0.368;2023-02-26T01:27:59;101288.22;;;3.33;70.26
49461;BME280;35355;49.198;-0.368;2023-02-26T01:30:25;101291.97;;;3.32;69.90
49461;BME280;35355;49.198;-0.368;2023-02-26T01:41:05;101302.69;;;3.19;71.12
49461;BME280;35355;49.198;-0.368;2023-02-26T01:43:40;101293.34;;;3.15;70.30
49461;BME280;35355;49.198;-0.368;2023-02-26T01:49:21;101300.16;;;3.11;70.00
49461;BME280;35355;49.198;-0.368;2023-02-26T01:54:18;101310.31;;;3.09;69.85
49461;BME280;35355;49.198;-0.368;2023-02-26T01:56:47;101305.94;;;3.08;69.77
49461;BME280;35355;49.198;-0.368;2023-02-26T01:59:15;101292.22;;;3.03;69.48
49461;BME280;35355;49.198;-0.368;2023-02-26T02:01:44;101291.19;;;3.04;69.40
49461;BME280;35355;49.198;-0.368;2023-02-26T02:04:12;101300.28;;;3.03;69.21
49461;BME280;35355;49.198;-0.368;2023-02-26T02:06:38;101296.34;;;2.98;69.38
49461;BME280;35355;49.198;-0.368;2023-02-26T02:09:05;101289.69;;;2.94;69.74
49461;BME280;35355;49.198;-0.368;2023-02-26T02:11:30;101294.25;;;2.94;69.42
49461;BME280;35355;49.198;-0.368;2023-02-26T02:14:11;101312.06;;;2.95;69.67
49461;BME280;35355;49.198;-0.368;2023-02-26T02:16:58;101295.06;;;2.94;70.04
49461;BME280;35355;49.198;-0.368;2023-02-26T02:31:18;101308.47;;;2.81;70.15
49461;BME280;35355;49.198;-0.368;2023-02-26T02:33:52;101315.06;;;2.78;70.09
49461;BME280;35355;49.198;-0.368;2023-02-26T02:39:24;101324.19;;;2.77;69.73
49461;BME280;35355;49.198;-0.368;2023-02-26T02:42:06;101316.50;;;2.74;70.07
49461;BME280;35355;49.198;-0.368;2023-02-26T02:44:37;101331.66;;;2.75;69.59
49461;BME280;35355;49.198;-0.368;2023-02-26T02:47:05;101333.50;;;2.75;69.01
49461;BME280;35355;49.198;-0.368;2023-02-26T02:49:38;101335.16;;;2.76;69.37
49461;BME280;35355;49.198;-0.368;2023-02-26T02:54:43;101334.72;;;2.72;68.92
49461;BME280;35355;49.198;-0.368;2023-02-26T02:59:44;101336.34;;;2.67;69.35
49461;BME280;35355;49.198;-0.368;2023-02-26T03:04:39;101340.91;;;2.66;68.96
49461;BME280;35355;49.198;-0.368;2023-02-26T03:07:05;101336.53;;;2.65;68.80
49461;BME280;35355;49.198;-0.368;2023-02-26T03:09:32;101338.41;;;2.65;69.06
49461;BME280;35355;49.198;-0.368;2023-02-26T03:11:57;101338.78;;;2.61;69.25
49461;BME280;35355;49.198;-0.368;2023-02-26T03:14:23;101337.13;;;2.60;68.94
49461;BME280;35355;49.198;-0.368;2023-02-26T03:17:13;101335.44;;;2.59;69.09
49461;BME280;35355;49.198;-0.368;2023-02-26T03:22:35;101335.84;;;2.56;69.70
49461;BME280;35355;49.198;-0.368;2023-02-26T03:30:56;101344.31;;;2.53;69.47
49461;BME280;35355;49.198;-0.368;2023-02-26T03:35:57;101359.47;;;2.54;69.44
49461;BME280;35355;49.198;-0.368;2023-02-26T03:38:34;101363.16;;;2.53;68.49
49461;BME280;35355;49.198;-0.368;2023-02-26T03:41:08;101367.75;;;2.53;68.78
49461;BME280;35355;49.198;-0.368;2023-02-26T03:43:59;101372.28;;;2.52;68.89
49461;BME280;35355;49.198;-0.368;2023-02-26T03:46:29;101376.03;;;2.51;68.27
49461;BME280;35355;49.198;-0.368;2023-02-26T03:48:58;101372.47;;;2.51;68.22
49461;BME280;35355;49.198;-0.368;2023-02-26T03:51:26;101368.94;;;2.50;68.23
49461;BME280;35355;49.198;-0.368;2023-02-26T03:54:04;101366.44;;;2.49;68.75
49461;BME280;35355;49.198;-0.368;2023-02-26T03:56:45;101361.44;;;2.45;68.72
49461;BME280;35355;49.198;-0.368;2023-02-26T03:59:13;101372.81;;;2.41;68.50
49461;BME280;35355;49.198;-0.368;2023-02-26T04:01:44;101362.22;;;2.39;68.66
49461;BME280;35355;49.198;-0.368;2023-02-26T04:04:40;101360.75;;;2.37;68.48
49461;BME280;35355;49.198;-0.368;2023-02-26T04:07:09;101364.84;;;2.33;68.26
49461;BME280;35355;49.198;-0.368;2023-02-26T04:09:35;101370.22;;;2.33;68.17
49461;BME280;35355;49.198;-0.368;2023-02-26T04:12:01;101372.47;;;2.29;68.25
49461;BME280;35355;49.198;-0.368;2023-02-26T04:14:26;101368.94;;;2.28;68.25
49461;BME280;35355;49.198;-0.368;2023-02-26T04:16:52;101367.28;;;2.27;67.56
49461;BME280;35355;49.198;-0.368;2023-02-26T04:19:17;101364.97;;;2.24;68.00
49461;BME280;35355;49.198;-0.368;2023-02-26T04:21:43;101371.38;;;2.23;68.06
49461;BME280;35355;49.198;-0.368;2023-02-26T04:24:08;101368.03;;;2.21;68.06
49461;BME280;35355;49.198;-0.368;2023-02-26T04:26:34;101375.47;;;2.19;68.03
49461;BME280;35355;49.198;-0.368;2023-02-26T04:28:59;101378.34;;;2.18;68.19
49461;BME280;35355;49.198;-0.368;2023-02-26T04:31:24;101377.06;;;2.14;67.92
49461;BME280;35355;49.198;-0.368;2023-02-26T04:33:50;101374.56;;;2.12;67.99
49461;BME280;35355;49.198;-0.368;2023-02-26T04:36:15;101366.88;;;2.09;68.06
49461;BME280;35355;49.198;-0.368;2023-02-26T04:38:41;101375.56;;;2.11;67.68
49461;BME280;35355;49.198;-0.368;2023-02-26T04:41:06;101381.81;;;2.12;67.59
49461;BME280;35355;49.198;-0.368;2023-02-26T04:43:31;101378.03;;;2.06;67.98
49461;BME280;35355;49.198;-0.368;2023-02-26T04:45:57;101381.34;;;2.08;67.93
49461;BME280;35355;49.198;-0.368;2023-02-26T04:48:22;101388.59;;;2.07;67.57
49461;BME280;35355;49.198;-0.368;2023-02-26T04:50:48;101383.78;;;2.03;67.76
49461;BME280;35355;49.198;-0.368;2023-02-26T04:53:13;101390.19;;;2.02;67.97
49461;BME280;35355;49.198;-0.368;2023-02-26T04:55:39;101395.31;;;1.97;67.64
49461;BME280;35355;49.198;-0.368;2023-02-26T04:58:06;101401.34;;;1.99;68.06
49461;BME280;35355;49.198;-0.368;2023-02-26T05:00:31;101404.41;;;1.96;67.60
49461;BME280;35355;49.198;-0.368;2023-02-26T05:02:57;101408.78;;;1.97;67.85
49461;BME280;35355;49.198;-0.368;2023-02-26T05:05:22;101417.88;;;1.96;67.95
49461;BME280;35355;49.198;-0.368;2023-02-26T05:07:47;101414.53;;;1.93;67.73
49461;BME280;35355;49.198;-0.368;2023-02-26T05:10:13;101417.59;;;1.90;68.06
49461;BME280;35355;49.198;-0.368;2023-02-26T05:12:38;101422.97;;;1.90;67.76
49461;BME280;35355;49.198;-0.368;2023-02-26T05:15:04;101432.09;;;1.89;67.42
49461;BME280;35355;49.198;-0.368;2023-02-26T05:17:30;101437.47;;;1.89;67.51
49461;BME280;35355;49.198;-0.368;2023-02-26T05:19:56;101435.78;;;1.88;67.33
49461;BME280;35355;49.198;-0.368;2023-02-26T05:22:21;101437.84;;;1.86;67.61
49461;BME280;35355;49.198;-0.368;2023-02-26T05:24:47;101450.25;;;1.87;68.13
49461;BME280;35355;49.198;-0.368;2023-02-26T05:27:12;101440.81;;;1.91;67.55
49461;BME280;35355;49.198;-0.368;2023-02-26T05:29:38;101447.09;;;1.99;67.97
49461;BME280;35355;49.198;-0.368;2023-02-26T05:52:14;101461.41;;;1.54;68.21
49461;BME280;35355;49.198;-0.368;2023-02-26T05:54:39;101464.09;;;1.54;67.84
49461;BME280;35355;49.198;-0.368;2023-02-26T05:57:05;101467.09;;;1.60;68.13
49461;BME280;35355;49.198;-0.368;2023-02-26T05:59:30;101466.16;;;1.67;68.36
49461;BME280;35355;49.198;-0.368;2023-02-26T06:01:55;101469.22;;;1.79;67.83
49461;BME280;35355;49.198;-0.368;2023-02-26T06:04:21;101470.16;;;1.86;68.28
49461;BME280;35355;49.198;-0.368;2023-02-26T06:06:46;101463.19;;;1.92;67.67
49461;BME280;35355;49.198;-0.368;2023-02-26T06:09:11;101466.88;;;2.06;67.69
49461;BME280;35355;49.198;-0.368;2023-02-26T06:11:37;101468.06;;;2.18;67.63
49461;BME280;35355;49.198;-0.368;2023-02-26T06:14:03;101466.28;;;2.25;67.72
49461;BME280;35355;49.198;-0.368;2023-02-26T06:16:29;101457.06;;;2.35;67.77
49461;BME280;35355;49.198;-0.368;2023-02-26T06:18:54;101468.13;;;2.40;67.11
49461;BME280;35355;49.198;-0.368;2023-02-26T06:21:19;101477.13;;;2.47;66.96
49461;BME280;35355;49.198;-0.368;2023-02-26T06:23:45;101468.28;;;2.53;66.63
49461;BME280;35355;49.198;-0.368;2023-02-26T06:26:10;101475.59;;;2.59;66.81
49461;BME280;35355;49.198;-0.368;2023-02-26T06:28:35;101473.56;;;2.61;66.85
49461;BME280;35355;49.198;-0.368;2023-02-26T06:31:01;101480.41;;;2.64;66.63
49461;BME280;35355;49.198;-0.368;2023-02-26T06:33:26;101479.19;;;2.67;66.65
49461;BME280;35355;49.198;-0.368;2023-02-26T06:35:52;101485.22;;;2.69;66.25
49461;BME280;35355;49.198;-0.368;2023-02-26T06:38:17;101498.97;;;2.74;66.16
49461;BME280;35355;49.198;-0.368;2023-02-26T06:40:43;101500.66;;;2.75;65.97
49461;BME280;35355;49.198;-0.368;2023-02-26T06:43:09;101507.50;;;2.77;66.20
49461;BME280;35355;49.198;-0.368;2023-02-26T06:45:35;101506.28;;;2.80;65.97
49461;BME280;35355;49.198;-0.368;2023-02-26T06:48:00;101514.00;;;2.83;65.83
49461;BME280;35355;49.198;-0.368;2023-02-26T06:50:26;101516.50;;;2.85;66.08
49461;BME280;35355;49.198;-0.368;2023-02-26T06:52:51;101517.78;;;2.89;65.86
49461;BME280;35355;49.198;-0.368;2023-02-26T06:55:17;101526.50;;;2.91;66.04
49461;BME280;35355;49.198;-0.368;2023-02-26T06:57:42;101526.72;;;2.89;65.77
49461;BME280;35355;49.198;-0.368;2023-02-26T07:00:08;101530.88;;;2.92;65.81
49461;BME280;35355;49.198;-0.368;2023-02-26T07:02:34;101535.25;;;2.93;65.75
49461;BME280;35355;49.198;-0.368;2023-02-26T07:05:00;101530.06;;;2.91;66.08
49461;BME280;35355;49.198;-0.368;2023-02-26T07:07:25;101542.97;;;2.96;65.93
49461;BME280;35355;49.198;-0.368;2023-02-26T07:09:51;101533.19;;;2.95;66.16
49461;BME280;35355;49.198;-0.368;2023-02-26T07:12:16;101540.72;;;2.99;65.67
49461;BME280;35355;49.198;-0.368;2023-02-26T07:14:41;101542.00;;;3.04;66.27
49461;BME280;35355;49.198;-0.368;2023-02-26T07:17:08;101536.88;;;3.09;66.38
49461;BME280;35355;49.198;-0.368;2023-02-26T07:19:34;101538.16;;;3.13;66.41
49461;BME280;35355;49.198;-0.368;2023-02-26T07:21:59;101544.19;;;3.15;66.01
49461;BME280;35355;49.198;-0.368;2023-02-26T07:24:25;101556.28;;;3.19;65.95
49461;BME280;35355;49.198;-0.368;2023-02-26T07:26:51;101553.78;;;3.18;66.17
49461;BME280;35355;49.198;-0.368;2023-02-26T07:29:17;101558.41;;;3.24;65.99
49461;BME280;35355;49.198;-0.368;2023-02-26T07:31:43;101560.91;;;3.25;66.29
49461;BME280;35355;49.198;-0.368;2023-02-26T07:34:08;101563.22;;;3.28;66.32
49461;BME280;35355;49.198;-0.368;2023-02-26T07:36:34;101562.81;;;3.31;65.96
49461;BME280;35355;49.198;-0.368;2023-02-26T07:38:59;101560.94;;;3.32;66.11
49461;BME280;35355;49.198;-0.368;2023-02-26T07:41:24;101560.41;;;3.37;66.22
49461;BME280;35355;49.198;-0.368;2023-02-26T07:43:50;101566.03;;;3.42;66.35
49461;BME280;35355;49.198;-0.368;2023-02-26T07:46:15;101568.97;;;3.47;66.12
49461;BME280;35355;49.198;-0.368;2023-02-26T07:48:41;101569.88;;;3.54;66.21
49461;BME280;35355;49.198;-0.368;2023-02-26T07:51:06;101574.06;;;3.57;66.17
49461;BME280;35355;49.198;-0.368;2023-02-26T07:53:33;101578.88;;;3.61;66.11
49461;BME280;35355;49.198;-0.368;2023-02-26T07:55:58;101581.81;;;3.66;66.03
49461;BME280;35355;49.198;-0.368;2023-02-26T07:58:24;101593.91;;;3.71;66.00
49461;BME280;35355;49.198;-0.368;2023-02-26T08:00:49;101584.19;;;3.76;66.03
49461;BME280;35355;49.198;-0.368;2023-02-26T08:03:17;101592.97;;;3.85;66.03
49461;BME280;35355;49.198;-0.368;2023-02-26T08:05:43;101603.44;;;3.95;65.47
49461;BME280;35355;49.198;-0.368;2023-02-26T08:08:08;101595.13;;;3.96;65.58
49461;BME280;35355;49.198;-0.368;2023-02-26T08:10:34;101592.66;;;4.01;65.29
49461;BME280;35355;49.198;-0.368;2023-02-26T08:12:59;101594.81;;;4.06;65.16
49461;BME280;35355;49.198;-0.368;2023-02-26T08:15:24;101601.84;;;4.07;64.92
49461;BME280;35355;49.198;-0.368;2023-02-26T08:17:53;101606.44;;;4.07;65.36
49461;BME280;35355;49.198;-0.368;2023-02-26T08:20:19;101612.25;;;4.03;64.87
49461;BME280;35355;49.198;-0.368;2023-02-26T08:22:44;101614.94;;;4.03;64.88
49461;BME280;35355;49.198;-0.368;2023-02-26T08:25:10;101616.78;;;4.03;64.42
49461;BME280;35355;49.198;-0.368;2023-02-26T08:27:36;101620.34;;;4.03;64.39
49461;BME280;35355;49.198;-0.368;2023-02-26T08:30:03;101613.47;;;4.01;64.17
49461;BME280;35355;49.198;-0.368;2023-02-26T08:32:29;101623.03;;;4.03;64.05
49461;BME280;35355;49.198;-0.368;2023-02-26T08:34:54;101628.44;;;4.03;64.06
49461;BME280;35355;49.198;-0.368;2023-02-26T08:37:19;101633.84;;;4.03;63.90
49461;BME280;35355;49.198;-0.368;2023-02-26T08:39:48;101630.28;;;4.03;63.66
49461;BME280;35355;49.198;-0.368;2023-02-26T08:42:13;101639.88;;;4.06;62.93
49461;BME280;35355;49.198;-0.368;2023-02-26T08:44:41;101640.97;;;4.11;63.02
49461;BME280;35355;49.198;-0.368;2023-02-26T08:47:07;101635.63;;;4.18;62.85
49461;BME280;35355;49.198;-0.368;2023-02-26T08:49:32;101635.47;;;4.26;62.70
49461;BME280;35355;49.198;-0.368;2023-02-26T08:51:57;101632.16;;;4.31;62.54
49461;BME280;35355;49.198;-0.368;2023-02-26T08:54:23;101646.34;;;4.39;62.37
49461;BME280;35355;49.198;-0.368;2023-02-26T08:56:49;101637.84;;;4.43;62.24
49461;BME280;35355;49.198;-0.368;2023-02-26T08:59:14;101655.16;;;4.48;62.36
49461;BME280;35355;49.198;-0.368;2023-02-26T09:01:39;101650.38;;;4.50;62.03
49461;BME280;35355;49.198;-0.368;2023-02-26T09:04:05;101667.44;;;4.51;61.73
49461;BME280;35355;49.198;-0.368;2023-02-26T09:06:30;101662.44;;;4.48;61.83
49461;BME280;35355;49.198;-0.368;2023-02-26T09:08:56;101665.16;;;4.54;61.62
49461;BME280;35355;49.198;-0.368;2023-02-26T09:11:21;101671.03;;;4.58;61.29
49461;BME280;35355;49.198;-0.368;2023-02-26T09:13:46;101681.25;;;4.69;61.37
49461;BME280;35355;49.198;-0.368;2023-02-26T09:16:12;101677.38;;;4.79;61.30
49461;BME280;35355;49.198;-0.368;2023-02-26T09:18:37;101693.03;;;4.90;61.24
49461;BME280;35355;49.198;-0.368;2023-02-26T09:21:03;101685.38;;;5.00;61.14
49461;BME280;35355;49.198;-0.368;2023-02-26T09:23:28;101693.53;;;5.14;60.39
49461;BME280;35355;49.198;-0.368;2023-02-26T09:25:55;101694.84;;;5.24;60.79
49461;BME280;35355;49.198;-0.368;2023-02-26T09:28:22;101689.91;;;5.35;60.51
49461;BME280;35355;49.198;-0.368;2023-02-26T09:30:50;101690.09;;;5.40;60.30
49461;BME280;35355;49.198;-0.368;2023-02-26T09:33:16;101696.16;;;5.42;60.57
49461;BME280;35355;49.198;-0.368;2023-02-26T09:35:41;101704.69;;;5.39;59.83
49461;BME280;35355;49.198;-0.368;2023-02-26T09:38:07;101687.56;;;5.25;60.43
49461;BME280;35355;49.198;-0.368;2023-02-26T09:40:39;101688.97;;;5.14;60.85
49461;BME280;35355;49.198;-0.368;2023-02-26T09:43:31;101696.00;;;5.02;61.44
49461;BME280;35355;49.198;-0.368;2023-02-26T09:46:03;101701.81;;;4.99;61.17
49461;BME280;35355;49.198;-0.368;2023-02-26T09:48:30;101702.66;;;4.99;61.13
49461;BME280;35355;49.198;-0.368;2023-02-26T09:50:58;101692.25;;;4.96;60.50
49461;BME280;35355;49.198;-0.368;2023-02-26T09:53:33;101701.19;;;4.97;60.90
49461;BME280;35355;49.198;-0.368;2023-02-26T09:56:22;101699.72;;;4.94;61.61
49461;BME280;35355;49.198;-0.368;2023-02-26T09:58:49;101697.59;;;4.89;61.10
49461;BME280;35355;49.198;-0.368;2023-02-26T10:01:25;101705.91;;;4.88;60.01
49461;BME280;35355;49.198;-0.368;2023-02-26T10:07:02;101701.72;;;4.79;61.16
49461;BME280;35355;49.198;-0.368;2023-02-26T10:09:51;101725.47;;;4.83;60.33
49461;BME280;35355;49.198;-0.368;2023-02-26T10:12:21;101732.09;;;4.81;59.06
49461;BME280;35355;49.198;-0.368;2023-02-26T10:15:09;101726.28;;;4.84;58.88
49461;BME280;35355;49.198;-0.368;2023-02-26T10:20:56;101738.94;;;4.77;57.25
49461;BME280;35355;49.198;-0.368;2023-02-26T10:23:43;101738.94;;;4.77;57.00
49461;BME280;35355;49.198;-0.368;2023-02-26T10:26:18;101745.00;;;4.79;56.56
49461;BME280;35355;49.198;-0.368;2023-02-26T10:31:56;101747.91;;;4.77;57.13
49461;BME280;35355;49.198;-0.368;2023-02-26T10:34:33;101752.03;;;4.73;56.38
49461;BME280;35355;49.198;-0.368;2023-02-26T10:39:49;101755.41;;;4.82;56.14
49461;BME280;35355;49.198;-0.368;2023-02-26T10:42:38;101757.72;;;4.85;56.26
49461;BME280;35355;49.198;-0.368;2023-02-26T10:50:46;101751.91;;;4.88;54.39
49461;BME280;35355;49.198;-0.368;2023-02-26T10:53:12;101764.22;;;4.90;54.40
49461;BME280;35355;49.198;-0.368;2023-02-26T10:55:46;101743.41;;;4.91;54.87
49461;BME280;35355;49.198;-0.368;2023-02-26T10:58:17;101759.47;;;4.99;52.26
49461;BME280;35355;49.198;-0.368;2023-02-26T11:00:45;101757.59;;;5.00;52.84
49461;BME280;35355;49.198;-0.368;2023-02-26T11:03:41;101761.78;;;5.02;53.58
49461;BME280;35355;49.198;-0.368;2023-02-26T11:06:05;101773.44;;;5.03;52.52
49461;BME280;35355;49.198;-0.368;2023-02-26T11:08:34;101759.69;;;5.04;52.96
49461;BME280;35355;49.198;-0.368;2023-02-26T11:11:04;101737.59;;;4.94;53.14
49461;BME280;35355;49.198;-0.368;2023-02-26T11:13:32;101775.59;;;5.14;52.76
49461;BME280;35355;49.198;-0.368;2023-02-26T11:16:02;101801.44;;;5.17;51.73
49461;BME280;35355;49.198;-0.368;2023-02-26T11:18:49;101763.53;;;5.17;52.81
49461;BME280;35355;49.198;-0.368;2023-02-26T11:21:22;101784.53;;;5.15;51.97
49461;BME280;35355;49.198;-0.368;2023-02-26T11:23:58;101760.38;;;5.13;50.70
49461;BME280;35355;49.198;-0.368;2023-02-26T11:26:30;101784.34;;;5.16;50.29
49461;BME280;35355;49.198;-0.368;2023-02-26T11:28:57;101786.22;;;5.16;49.29
49461;BME280;35355;49.198;-0.368;2023-02-26T11:31:24;101794.13;;;5.17;50.12
49461;BME280;35355;49.198;-0.368;2023-02-26T11:34:00;101810.16;;;5.19;49.92
49461;BME280;35355;49.198;-0.368;2023-02-26T11:36:28;101793.94;;;5.19;49.62
49461;BME280;35355;49.198;-0.368;2023-02-26T11:39:02;101800.16;;;5.19;50.12
49461;BME280;35355;49.198;-0.368;2023-02-26T11:41:35;101817.25;;;5.20;49.57
49461;BME280;35355;49.198;-0.368;2023-02-26T11:44:13;101790.59;;;5.17;50.06
49461;BME280;35355;49.198;-0.368;2023-02-26T11:46:56;101824.72;;;5.18;51.30
49461;BME280;35355;49.198;-0.368;2023-02-26T11:49:25;101804.31;;;5.15;49.49
49461;BME280;35355;49.198;-0.368;2023-02-26T11:54:37;101818.28;;;5.19;49.33
49461;BME280;35355;49.198;-0.368;2023-02-26T11:57:14;101811.41;;;5.16;49.69
49461;BME280;35355;49.198;-0.368;2023-02-26T11:59:40;101817.25;;;5.20;48.84
49461;BME280;35355;49.198;-0.368;2023-02-26T12:02:12;101816.88;;;5.23;50.04
49461;BME280;35355;49.198;-0.368;2023-02-26T12:04:43;101819.16;;;5.26;49.27
49461;BME280;35355;49.198;-0.368;2023-02-26T12:07:12;101807.31;;;5.27;49.21
49461;BME280;35355;49.198;-0.368;2023-02-26T12:09:38;101805.44;;;5.27;48.41
49461;BME280;35355;49.198;-0.368;2023-02-26T12:20:25;101800.63;;;5.30;50.10
49461;BME280;35355;49.198;-0.368;2023-02-26T12:26:30;101799.56;;;5.24;49.36
49461;BME280;35355;49.198;-0.368;2023-02-26T12:32:00;101788.94;;;5.22;50.19
49461;BME280;35355;49.198;-0.368;2023-02-26T12:47:56;101801.91;;;5.27;48.27
49461;BME280;35355;49.198;-0.368;2023-02-26T12:58:12;101797.72;;;5.31;48.75
49461;BME280;35355;49.198;-0.368;2023-02-26T13:01:10;101804.81;;;5.32;50.09
49461;BME280;35355;49.198;-0.368;2023-02-26T13:06:44;101774.69;;;5.42;49.57
49461;BME280;35355;49.198;-0.368;2023-02-26T13:09:33;101775.09;;;5.45;50.13
49461;BME280;35355;49.198;-0.368;2023-02-26T13:12:40;101785.97;;;5.52;50.62
49461;BME280;35355;49.198;-0.368;2023-02-26T13:17:57;101805.97;;;5.58;51.05
49461;BME280;35355;49.198;-0.368;2023-02-26T13:20:27;101787.81;;;5.52;47.55
49461;BME280;35355;49.198;-0.368;2023-02-26T13:23:02;101796.56;;;5.47;48.70
49461;BME280;35355;49.198;-0.368;2023-02-26T13:26:03;101798.03;;;5.50;48.90
49461;BME280;35355;49.198;-0.368;2023-02-26T13:28:58;101795.75;;;5.53;49.85
49461;BME280;35355;49.198;-0.368;2023-02-26T13:31:33;101800.34;;;5.59;48.93
49461;BME280;35355;49.198;-0.368;2023-02-26T13:35:11;101800.41;;;5.66;50.09
49461;BME280;35355;49.198;-0.368;2023-02-26T13:37:14;101791.25;;;5.67;49.38
49461;BME280;35355;49.198;-0.368;2023-02-26T13:39:51;101806.88;;;5.78;49.11
49461;BME280;35355;49.198;-0.368;2023-02-26T13:42:32;101799.63;;;5.86;49.63
49461;BME280;35355;49.198;-0.368;2023-02-26T13:50:41;101783.38;;;5.92;48.22
49461;BME280;35355;49.198;-0.368;2023-02-26T13:56:13;101818.56;;;5.86;46.62
49461;BME280;35355;49.198;-0.368;2023-02-26T13:58:42;101788.78;;;5.86;46.65
49461;BME280;35355;49.198;-0.368;2023-02-26T14:01:14;101803.75;;;5.82;46.20
49461;BME280;35355;49.198;-0.368;2023-02-26T14:23:53;101803.75;;;4.91;47.28
49461;BME280;35355;49.198;-0.368;2023-02-26T14:26:20;101808.78;;;4.95;46.96
49461;BME280;35355;49.198;-0.368;2023-02-26T14:34:19;101803.47;;;5.15;48.06
49461;BME280;35355;49.198;-0.368;2023-02-26T14:36:52;101834.72;;;5.17;47.92
49461;BME280;35355;49.198;-0.368;2023-02-26T14:41:59;101836.44;;;5.25;47.68
49461;BME280;35355;49.198;-0.368;2023-02-26T14:44:29;101803.53;;;5.21;47.19
49461;BME280;35355;49.198;-0.368;2023-02-26T14:46:56;101811.44;;;5.23;46.68
49461;BME280;35355;49.198;-0.368;2023-02-26T14:49:28;101822.50;;;5.28;47.67
49461;BME280;35355;49.198;-0.368;2023-02-26T14:52:05;101806.91;;;5.30;47.95
49461;BME280;35355;49.198;-0.368;2023-02-26T14:54:53;101877.72;;;5.34;48.07
49461;BME280;35355;49.198;-0.368;2023-02-26T15:00:45;101824.81;;;5.31;47.99
49461;BME280;35355;49.198;-0.368;2023-02-26T15:08:34;101853.97;;;5.29;47.74
49461;BME280;35355;49.198;-0.368;2023-02-26T15:13:58;101810.66;;;5.29;48.70
49461;BME280;35355;49.198;-0.368;2023-02-26T15:24:33;101820.41;;;5.23;48.42
49461;BME280;35355;49.198;-0.368;2023-02-26T15:27:01;101826.22;;;5.20;47.78
49461;BME280;35355;49.198;-0.368;2023-02-26T15:29:34;101818.09;;;5.20;48.59
49461;BME280;35355;49.198;-0.368;2023-02-26T15:32:28;101824.72;;;5.18;48.12
49461;BME280;35355;49.198;-0.368;2023-02-26T15:35:20;101809.09;;;5.13;48.69
49461;BME280;35355;49.198;-0.368;2023-02-26T15:37:52;101823.66;;;5.12;48.32
49461;BME280;35355;49.198;-0.368;2023-02-26T15:40:18;101843.44;;;5.13;48.15
49461;BME280;35355;49.198;-0.368;2023-02-26T15:42:47;101814.72;;;5.12;48.61
49461;BME280;35355;49.198;-0.368;2023-02-26T15:45:21;101800.34;;;5.11;48.90
49461;BME280;35355;49.198;-0.368;2023-02-26T15:47:53;101811.59;;;5.15;49.36
49461;BME280;35355;49.198;-0.368;2023-02-26T15:50:20;101809.91;;;5.14;48.26
49461;BME280;35355;49.198;-0.368;2023-02-26T15:52:52;101819.72;;;5.15;49.26
49461;BME280;35355;49.198;-0.368;2023-02-26T15:55:20;101803.47;;;5.15;48.66
49461;BME280;35355;49.198;-0.368;2023-02-26T15:57:46;101811.78;;;5.13;49.43
49461;BME280;35355;49.198;-0.368;2023-02-26T16:00:16;101810.56;;;5.16;49.75
49461;BME280;35355;49.198;-0.368;2023-02-26T16:02:48;101798.47;;;5.12;49.30
49461;BME280;35355;49.198;-0.368;2023-02-26T16:05:14;101825.31;;;5.06;48.70
49461;BME280;35355;49.198;-0.368;2023-02-26T16:07:40;101809.69;;;5.08;48.70
49461;BME280;35355;49.198;-0.368;2023-02-26T16:10:38;101823.41;;;5.07;49.80
49461;BME280;35355;49.198;-0.368;2023-02-26T16:13:04;101819.88;;;5.06;48.47
49461;BME280;35355;49.198;-0.368;2023-02-26T16:15:34;101833.78;;;5.03;48.84